Time;durP1;ratioP1;P1;durP2;ratioP2;P2;SDS_P1;SDS_P2;PMS_P1;PMS_P2;Temp;Humidity;BMP_temperature;BMP_pressure;BME280_temperature;BME280_humidity;BME280_pressure;Samples;Min_cycle;Max_cycle;Signal;HPM_P1;HPM_P2
2021/12/05 00:22:00;;;;;;;197.43;29.83;;;-3.10;99.90;;;;;;4140760;28;20275;-56
2021/12/05 00:24:07;;;;;;;218.50;29.02;;;-3.20;99.90;;;;;;4140163;28;20295;-59
2021/12/05 00:26:13;;;;;;;287.55;39.63;;;-3.30;99.90;;;;;;4140876;28;20026;-56
2021/12/05 00:56:04;;;;;;;130.00;23.58;;;-3.60;99.90;;;;;;4147229;28;20033;-65
2021/12/05 01:02:55;;;;;;;185.40;25.88;;;-3.60;99.90;;;;;;4140210;28;20100;-59
2021/12/05 01:16:13;;;;;;;181.57;23.52;;;-3.80;99.90;;;;;;4141769;28;20120;-57
2021/12/05 01:18:17;;;;;;;256.02;29.30;;;-3.80;99.90;;;;;;4156208;28;20034;-55
2021/12/05 01:20:18;;;;;;;205.85;23.08;;;-3.90;99.90;;;;;;4156249;28;20084;-57
2021/12/05 01:22:21;;;;;;;129.55;21.45;;;-3.80;99.90;;;;;;4157224;28;20503;-58
2021/12/05 01:35:49;;;;;;;258.08;27.45;;;-4.00;99.90;;;;;;4159422;28;20103;-55
2021/12/05 01:51:48;;;;;;;196.98;23.92;;;-4.10;99.90;;;;;;4158969;28;20034;-65
2021/12/05 02:40:35;;;;;;;251.80;34.72;;;-3.90;99.90;;;;;;4157421;28;20560;-60
2021/12/05 02:42:42;;;;;;;206.75;31.42;;;-3.80;99.90;;;;;;4157971;28;20034;-60
2021/12/05 02:44:45;;;;;;;150.63;27.52;;;-3.80;99.90;;;;;;4157607;28;20091;-55
2021/12/05 02:46:59;;;;;;;282.65;32.38;;;-3.80;99.90;;;;;;4157565;28;20470;-61
2021/12/05 02:49:04;;;;;;;214.32;28.58;;;-3.80;99.90;;;;;;4158775;28;20052;-56
2021/12/05 02:51:13;;;;;;;136.63;29.70;;;-3.80;99.90;;;;;;4157532;28;20470;-57
2021/12/05 02:53:20;;;;;;;118.53;30.48;;;-3.80;99.90;;;;;;4158745;28;20095;-59
2021/12/05 02:55:35;;;;;;;222.82;36.10;;;-3.70;99.90;;;;;;4157219;28;20474;-58
2021/12/05 02:59:51;;;;;;;191.60;29.50;;;-3.70;99.90;;;;;;4157203;28;20928;-59
2021/12/05 03:01:59;;;;;;;162.85;26.05;;;-3.70;99.90;;;;;;4156758;28;20092;-63
2021/12/05 03:04:01;;;;;;;201.38;33.03;;;-3.70;99.90;;;;;;4156966;28;20448;-58
2021/12/05 03:06:17;;;;;;;153.43;32.10;;;-3.70;99.90;;;;;;4158646;28;20098;-61
2021/12/05 03:08:19;;;;;;;196.02;33.25;;;-3.70;99.90;;;;;;4157543;28;20087;-68
2021/12/05 03:10:21;;;;;;;173.13;30.88;;;-3.70;99.90;;;;;;4158680;28;20436;-68
2021/12/05 03:12:23;;;;;;;209.57;31.80;;;-3.70;99.90;;;;;;4157404;28;20099;-63
2021/12/05 03:14:24;;;;;;;127.15;27.15;;;-3.60;99.90;;;;;;4158095;28;20677;-64
2021/12/05 03:16:27;;;;;;;178.13;28.25;;;-3.60;99.90;;;;;;4157181;28;20371;-55
2021/12/05 03:18:28;;;;;;;122.22;25.38;;;-3.60;99.90;;;;;;4157674;28;20075;-55
2021/12/05 03:20:29;;;;;;;103.18;24.05;;;-3.60;99.90;;;;;;4157177;28;20045;-56
2021/12/05 03:22:30;;;;;;;158.17;26.97;;;-3.60;99.90;;;;;;4158383;28;20025;-60
2021/12/05 03:24:33;;;;;;;115.97;26.38;;;-3.60;99.90;;;;;;4156680;28;20704;-55
2021/12/05 03:26:37;;;;;;;120.88;26.33;;;-3.60;99.90;;;;;;4157356;28;20049;-68
2021/12/05 03:28:38;;;;;;;129.50;27.57;;;-3.60;99.90;;;;;;4156421;28;20095;-58
2021/12/05 03:30:40;;;;;;;176.82;27.80;;;-3.50;99.90;;;;;;4157985;28;20271;-57
2021/12/05 03:32:41;;;;;;;126.27;25.90;;;-3.50;99.90;;;;;;4157233;28;20083;-60
2021/12/05 03:34:43;;;;;;;176.10;26.65;;;-3.50;99.90;;;;;;4157108;28;20332;-56
2021/12/05 03:36:49;;;;;;;120.80;26.57;;;-3.50;99.90;;;;;;4158188;28;20391;-63
2021/12/05 03:38:50;;;;;;;99.38;24.90;;;-3.50;99.90;;;;;;4157275;28;20794;-58
2021/12/05 03:40:51;;;;;;;78.30;24.73;;;-3.50;99.90;;;;;;4158193;28;20041;-56
2021/12/05 03:42:54;;;;;;;79.72;25.90;;;-3.40;99.90;;;;;;4156528;28;20037;-60
2021/12/05 03:44:55;;;;;;;82.00;25.37;;;-3.40;99.90;;;;;;4157776;28;20030;-55
2021/12/05 03:46:57;;;;;;;74.55;23.90;;;-3.30;99.90;;;;;;4156995;28;20349;-58
2021/12/05 03:49:08;;;;;;;82.60;25.40;;;-3.30;99.90;;;;;;4157693;28;20473;-55
2021/12/05 03:51:11;;;;;;;72.77;24.13;;;-3.20;99.90;;;;;;4156285;28;20025;-56
2021/12/05 03:53:14;;;;;;;237.63;35.50;;;-3.20;99.90;;;;;;4157512;28;20701;-56
2021/12/05 03:55:16;;;;;;;84.73;24.73;;;-3.20;99.90;;;;;;4155780;28;20267;-53
2021/12/05 03:57:18;;;;;;;77.88;25.95;;;-3.20;99.90;;;;;;4157913;28;20274;-62
2021/12/05 03:59:19;;;;;;;113.47;27.67;;;-3.20;99.90;;;;;;4156907;28;20481;-55
2021/12/05 04:01:24;;;;;;;68.80;24.58;;;-3.20;99.90;;;;;;4157464;28;20309;-58
2021/12/05 04:03:27;;;;;;;91.35;25.60;;;-3.10;99.90;;;;;;4155950;28;20083;-61
2021/12/05 04:05:31;;;;;;;91.13;27.70;;;-3.00;99.90;;;;;;4157825;28;20053;-63
2021/12/05 04:07:32;;;;;;;69.33;26.00;;;-3.00;99.90;;;;;;4156983;28;20270;-55
2021/12/05 04:09:34;;;;;;;70.60;25.83;;;-3.00;99.90;;;;;;4157382;28;20831;-59
2021/12/05 04:11:41;;;;;;;94.17;25.67;;;-2.90;99.90;;;;;;4156521;28;20267;-59
2021/12/05 04:13:43;;;;;;;75.20;25.20;;;-2.90;99.90;;;;;;4157091;28;20393;-61
2021/12/05 04:15:46;;;;;;;76.03;25.93;;;-2.90;99.90;;;;;;4157511;28;20266;-61
2021/12/05 04:17:47;;;;;;;76.40;24.77;;;-2.90;99.90;;;;;;4156978;28;20283;-58
2021/12/05 04:19:49;;;;;;;79.83;26.53;;;-2.90;99.90;;;;;;4155701;28;20290;-57
2021/12/05 04:21:50;;;;;;;74.80;25.90;;;-2.90;99.90;;;;;;4156437;28;20709;-57
2021/12/05 04:23:52;;;;;;;68.33;26.10;;;-2.80;99.90;;;;;;4157990;28;20258;-53
2021/12/05 04:25:53;;;;;;;69.87;25.23;;;-2.80;99.90;;;;;;4155566;28;20376;-60
2021/12/05 04:27:56;;;;;;;75.67;26.90;;;-2.80;99.90;;;;;;4157900;28;20321;-64
2021/12/05 04:29:57;;;;;;;64.00;24.57;;;-2.70;99.90;;;;;;4156238;28;20761;-60
2021/12/05 04:31:58;;;;;;;79.33;26.40;;;-2.70;99.90;;;;;;4157297;28;20754;-61
2021/12/05 04:33:59;;;;;;;76.97;25.70;;;-2.70;99.90;;;;;;4155761;28;20316;-61
2021/12/05 04:36:01;;;;;;;65.07;24.40;;;-2.70;99.90;;;;;;4157196;28;20278;-52
2021/12/05 04:38:02;;;;;;;68.90;24.17;;;-2.70;99.90;;;;;;4157048;28;20682;-56
2021/12/05 04:40:06;;;;;;;73.23;24.53;;;-2.70;99.90;;;;;;4157571;28;20316;-61
2021/12/05 04:42:07;;;;;;;77.37;24.27;;;-2.70;99.90;;;;;;4156500;28;20259;-61
2021/12/05 04:44:09;;;;;;;72.40;25.67;;;-2.70;99.90;;;;;;4156811;28;20309;-60
2021/12/05 04:46:22;;;;;;;58.90;21.70;;;-2.70;99.90;;;;;;4155128;28;20337;-58
2021/12/05 04:48:23;;;;;;;91.63;25.23;;;-2.70;99.90;;;;;;4155795;28;20352;-61
2021/12/05 04:50:25;;;;;;;87.60;26.53;;;-2.70;99.90;;;;;;4156793;28;20258;-58
2021/12/05 04:52:26;;;;;;;123.10;26.77;;;-2.70;99.90;;;;;;4155973;28;20317;-59
2021/12/05 04:54:28;;;;;;;101.47;26.80;;;-2.80;99.90;;;;;;4156939;28;20294;-58
2021/12/05 04:56:30;;;;;;;98.57;25.80;;;-2.90;99.90;;;;;;4155905;28;20845;-61
2021/12/05 04:58:32;;;;;;;101.43;25.10;;;-2.90;99.90;;;;;;4157386;28;20292;-60
2021/12/05 05:00:40;;;;;;;77.03;23.20;;;-2.80;99.90;;;;;;4156154;28;20329;-60
2021/12/05 05:02:42;;;;;;;96.07;24.70;;;-2.90;99.90;;;;;;4156667;28;20263;-59
2021/12/05 05:04:46;;;;;;;112.23;24.50;;;-2.90;99.90;;;;;;4155987;28;20405;-58
2021/12/05 05:06:47;;;;;;;63.93;22.40;;;-2.90;99.90;;;;;;4158769;28;20344;-57
2021/12/05 05:08:53;;;;;;;65.00;22.47;;;-2.90;99.90;;;;;;4159440;28;20348;-55
2021/12/05 05:10:54;;;;;;;58.37;21.50;;;-2.80;99.90;;;;;;4160614;28;20802;-61
2021/12/05 05:12:55;;;;;;;126.70;24.30;;;-2.90;99.90;;;;;;4159437;28;20810;-60
2021/12/05 05:14:57;;;;;;;101.47;24.80;;;-2.80;99.90;;;;;;4160636;28;20734;-67
2021/12/05 05:16:58;;;;;;;100.87;25.13;;;-2.90;99.90;;;;;;4159028;28;20301;-59
2021/12/05 05:19:00;;;;;;;76.87;23.60;;;-2.90;99.90;;;;;;4160176;28;20727;-59
2021/12/05 05:46:14;;;;;;;72.70;26.53;;;-3.00;99.90;;;;;;4158439;28;20395;-64
2021/12/05 05:50:19;;;;;;;86.17;28.27;;;-2.90;99.90;;;;;;4159855;28;20083;-63
2021/12/05 05:52:21;;;;;;;87.03;28.13;;;-2.90;99.90;;;;;;4158765;28;20321;-60
2021/12/05 05:54:22;;;;;;;93.47;27.10;;;-2.90;99.90;;;;;;4159726;28;20270;-63
2021/12/05 05:56:27;;;;;;;77.83;27.47;;;-2.90;99.90;;;;;;4158092;28;20689;-63
2021/12/05 05:58:45;;;;;;;123.77;29.50;;;-2.90;99.90;;;;;;4159594;28;20325;-57
2021/12/05 06:01:04;;;;;;;84.60;28.73;;;-2.90;99.90;;;;;;4158287;28;20333;-67
2021/12/05 06:03:21;;;;;;;75.70;27.20;;;-2.90;99.90;;;;;;4159226;28;20279;-62
2021/12/05 06:05:22;;;;;;;83.43;28.67;;;-2.80;99.90;;;;;;4157908;28;20411;-58
2021/12/05 06:07:25;;;;;;;107.43;32.00;;;-2.80;99.90;;;;;;4159344;28;20271;-61
2021/12/05 06:09:26;;;;;;;85.20;28.70;;;-2.80;99.90;;;;;;4158057;28;20336;-58
2021/12/05 06:11:28;;;;;;;92.30;30.17;;;-2.80;99.90;;;;;;4159558;28;20270;-68
2021/12/05 06:13:30;;;;;;;119.13;31.80;;;-2.80;99.90;;;;;;4158300;28;20830;-66
2021/12/05 06:15:31;;;;;;;110.63;32.70;;;-2.80;99.90;;;;;;4159777;28;20279;-60
2021/12/05 06:17:32;;;;;;;94.83;30.47;;;-2.80;99.90;;;;;;4158066;28;20267;-63
2021/12/05 06:19:36;;;;;;;98.32;29.70;;;-2.80;99.90;;;;;;4158907;28;20270;-60
2021/12/05 06:21:37;;;;;;;104.07;30.70;;;-2.80;99.90;;;;;;4157934;28;20033;-60
2021/12/05 06:23:39;;;;;;;109.70;33.10;;;-2.80;99.90;;;;;;4158553;28;20254;-60
2021/12/05 06:25:44;;;;;;;101.77;32.33;;;-2.70;99.90;;;;;;4158562;28;20295;-66
2021/12/05 06:27:46;;;;;;;148.50;33.10;;;-2.70;99.90;;;;;;4158146;28;20317;-56
2021/12/05 06:29:54;;;;;;;128.50;32.60;;;-2.70;99.90;;;;;;4158704;28;20251;-56
2021/12/05 06:39:18;;;;;;;91.53;28.73;;;-2.60;99.90;;;;;;4158018;28;20284;-61
2021/12/05 06:47:54;;;;;;;100.70;30.67;;;-2.50;99.90;;;;;;4157451;28;20115;-61
2021/12/05 06:49:56;;;;;;;83.97;29.30;;;-2.50;99.90;;;;;;4158826;28;21048;-67
2021/12/05 06:51:58;;;;;;;82.90;29.47;;;-2.60;99.90;;;;;;4157481;28;20385;-67
2021/12/05 06:53:59;;;;;;;93.13;30.17;;;-2.60;99.90;;;;;;4158283;28;20804;-67
2021/12/05 06:56:01;;;;;;;96.10;33.80;;;-2.60;99.90;;;;;;4156337;28;20805;-63
2021/12/05 06:58:03;;;;;;;86.63;32.40;;;-2.60;99.90;;;;;;4157865;28;20282;-66
2021/12/05 07:00:15;;;;;;;93.13;33.07;;;-2.60;99.90;;;;;;4158070;28;20328;-64
2021/12/05 07:02:18;;;;;;;87.13;30.73;;;-2.50;99.90;;;;;;4157757;28;20320;-64
2021/12/05 07:04:44;;;;;;;89.90;32.63;;;-2.60;99.90;;;;;;4157981;28;20258;-60
2021/12/05 07:06:42;;;;;;;90.03;31.40;;;-2.60;99.90;;;;;;4157581;28;20294;-61
2021/12/05 07:08:43;;;;;;;99.43;32.40;;;-2.50;99.90;;;;;;4157933;28;20270;-62
2021/12/05 07:10:49;;;;;;;90.03;30.50;;;-2.50;99.90;;;;;;4157712;28;20271;-67
2021/12/05 07:15:07;;;;;;;69.60;28.30;;;-2.40;99.90;;;;;;4156973;28;21247;-64
2021/12/05 07:19:26;;;;;;;73.07;29.33;;;-2.30;99.90;;;;;;4157694;28;21120;-65
2021/12/05 07:24:23;;;;;;;63.27;25.60;;;-2.20;99.90;;;;;;4156470;28;20333;-60
2021/12/05 07:26:14;;;;;;;63.57;25.77;;;-2.20;99.90;;;;;;4156877;28;20298;-58
2021/12/05 07:40:29;;;;;;;60.28;24.35;;;-1.80;99.90;;;;;;4156979;28;20329;-61
2021/12/05 07:42:33;;;;;;;59.07;26.03;;;-1.60;99.90;;;;;;4158055;28;20107;-62
2021/12/05 07:44:34;;;;;;;53.40;22.90;;;-1.40;99.90;;;;;;4156751;28;20328;-66
2021/12/05 07:46:35;;;;;;;55.77;22.67;;;-1.40;99.90;;;;;;4157838;28;20340;-60
2021/12/05 07:48:42;;;;;;;49.47;22.03;;;-1.50;99.90;;;;;;4155946;28;20325;-59
2021/12/05 07:50:54;;;;;;;46.73;20.83;;;-1.60;99.90;;;;;;4158050;28;20279;-62
2021/12/05 07:53:03;;;;;;;56.60;23.00;;;-1.60;99.90;;;;;;4156753;28;20743;-60
2021/12/05 07:55:21;;;;;;;51.50;22.17;;;-1.60;99.90;;;;;;4157950;28;20279;-56
2021/12/05 07:57:38;;;;;;;51.13;22.37;;;-1.50;99.90;;;;;;4156816;28;20290;-61
2021/12/05 08:16:10;;;;;;;52.90;24.73;;;-1.40;99.90;;;;;;4152275;28;20346;-61
2021/12/05 08:18:12;;;;;;;51.37;22.40;;;-1.30;99.90;;;;;;4140786;28;20287;-60
2021/12/05 08:20:13;;;;;;;51.43;23.13;;;-1.20;99.90;;;;;;4140463;28;20271;-61
2021/12/05 08:22:16;;;;;;;51.47;22.70;;;-1.20;99.90;;;;;;4140865;28;20264;-60
2021/12/05 08:24:17;;;;;;;51.10;24.53;;;-1.10;99.90;;;;;;4139754;28;20318;-65
2021/12/05 08:26:21;;;;;;;50.50;22.87;;;-1.00;99.90;;;;;;4155275;28;20754;-60
2021/12/05 08:30:36;;;;;;;47.25;21.20;;;-1.00;99.90;;;;;;4156797;28;20380;-60
2021/12/05 08:33:09;;;;;;;49.70;20.93;;;-1.00;99.90;;;;;;4154829;28;20025;-59
2021/12/05 08:35:43;;;;;;;46.40;21.77;;;-1.00;99.90;;;;;;4156992;28;20266;-66
2021/12/05 09:23:53;;;;;;;46.05;21.75;;;-0.30;99.90;;;;;;4156544;28;20049;-61
2021/12/05 10:17:25;;;;;;;46.33;21.27;;;0.70;99.90;;;;;;4157552;28;20278;-60
2021/12/05 10:19:36;;;;;;;46.17;21.00;;;0.70;99.90;;;;;;4157149;28;21189;-63
2021/12/05 10:27:14;;;;;;;50.87;23.13;;;0.60;99.90;;;;;;4164392;28;20774;-63
2021/12/05 10:36:42;;;;;;;48.07;21.33;;;0.60;99.90;;;;;;4145945;28;20627;-61
2021/12/05 10:38:54;;;;;;;46.77;22.00;;;0.60;99.90;;;;;;4157837;28;20271;-61
2021/12/05 10:41:17;;;;;;;50.23;22.77;;;0.70;99.90;;;;;;4139588;28;20279;-61
2021/12/05 10:43:22;;;;;;;52.13;23.07;;;0.70;99.90;;;;;;4141381;28;20830;-57
2021/12/05 10:45:29;;;;;;;47.50;21.77;;;0.70;99.90;;;;;;4140618;28;20760;-62
2021/12/05 10:47:42;;;;;;;49.50;25.33;;;0.70;99.90;;;;;;4143399;28;20417;-62
2021/12/05 10:49:44;;;;;;;47.03;21.97;;;0.70;99.90;;;;;;4156431;28;20376;-61
2021/12/05 10:51:55;;;;;;;48.60;22.30;;;0.70;99.90;;;;;;4157629;28;20832;-67
2021/12/05 10:54:07;;;;;;;46.63;21.30;;;0.80;99.90;;;;;;4157124;28;20278;-66
2021/12/05 10:56:28;;;;;;;45.97;21.70;;;0.80;99.90;;;;;;4156843;28;20770;-69
2021/12/05 10:58:50;;;;;;;47.57;22.63;;;0.70;99.90;;;;;;4156245;28;20955;-59
2021/12/05 11:01:04;;;;;;;44.33;22.60;;;0.70;99.90;;;;;;4157993;28;20332;-63
2021/12/05 11:03:20;;;;;;;55.73;25.47;;;0.70;99.90;;;;;;4155128;28;20313;-63
2021/12/05 11:05:35;;;;;;;44.30;21.87;;;0.80;99.90;;;;;;4157420;28;20275;-67
2021/12/05 11:07:38;;;;;;;47.07;21.73;;;0.70;99.90;;;;;;4156289;28;20298;-66
2021/12/05 11:09:44;;;;;;;43.60;22.27;;;0.70;99.90;;;;;;4158103;28;21020;-59
2021/12/05 11:11:50;;;;;;;45.23;22.07;;;0.70;99.90;;;;;;4156672;28;20267;-69
2021/12/05 11:13:52;;;;;;;45.13;21.33;;;0.70;99.90;;;;;;4157251;28;20301;-65
2021/12/05 11:15:53;;;;;;;43.90;19.47;;;0.70;99.90;;;;;;4156024;28;20630;-60
2021/12/05 11:17:56;;;;;;;44.90;20.50;;;0.70;99.90;;;;;;4156983;28;20352;-61
2021/12/05 11:20:09;;;;;;;47.70;21.20;;;0.60;99.90;;;;;;4156336;28;20325;-60
2021/12/05 11:22:15;;;;;;;44.10;20.73;;;0.60;99.90;;;;;;4157708;28;20340;-64
2021/12/05 11:24:29;;;;;;;44.30;20.93;;;0.60;99.90;;;;;;4155731;28;20754;-62
2021/12/05 11:26:32;;;;;;;46.70;23.53;;;0.60;99.90;;;;;;4157160;28;20305;-63
2021/12/05 11:28:33;;;;;;;46.83;21.17;;;0.60;99.90;;;;;;4156841;28;20674;-61
2021/12/05 11:30:40;;;;;;;48.17;22.03;;;0.70;99.90;;;;;;4157192;28;20275;-60
2021/12/05 11:32:55;;;;;;;48.33;24.37;;;0.80;99.90;;;;;;4155938;28;20274;-60
2021/12/05 11:34:56;;;;;;;47.67;22.30;;;0.90;99.90;;;;;;4156561;28;20271;-63
2021/12/05 11:36:57;;;;;;;47.70;22.40;;;1.00;99.90;;;;;;4156852;28;20935;-62
2021/12/05 11:38:59;;;;;;;51.37;23.07;;;1.00;99.90;;;;;;4156812;28;20291;-60
2021/12/05 11:41:16;;;;;;;45.57;22.07;;;1.00;99.90;;;;;;4157021;28;20662;-60
2021/12/05 11:43:22;;;;;;;48.60;23.47;;;1.00;99.90;;;;;;4155782;28;20278;-61
2021/12/05 11:45:23;;;;;;;46.00;22.37;;;1.10;99.90;;;;;;4157177;28;21148;-62
2021/12/05 11:47:24;;;;;;;48.87;23.07;;;1.00;99.90;;;;;;4156672;28;20778;-61
2021/12/05 11:49:25;;;;;;;47.70;21.40;;;1.10;99.90;;;;;;4156698;28;20301;-56
2021/12/05 11:51:38;;;;;;;44.53;21.50;;;1.10;99.90;;;;;;4156098;28;20270;-59
2021/12/05 11:53:48;;;;;;;47.97;22.37;;;1.10;99.90;;;;;;4157797;28;20674;-58
2021/12/05 11:55:50;;;;;;;45.90;22.23;;;1.20;99.90;;;;;;4155834;28;20678;-64
2021/12/05 11:57:51;;;;;;;50.20;23.87;;;1.20;99.90;;;;;;4157170;28;20278;-60
2021/12/05 11:59:57;;;;;;;55.00;25.17;;;1.20;99.90;;;;;;4155776;28;20309;-61
2021/12/05 12:02:07;;;;;;;45.97;22.47;;;1.20;99.90;;;;;;4157034;28;21131;-57
2021/12/05 12:04:10;;;;;;;46.43;22.63;;;1.30;99.90;;;;;;4155065;28;20691;-58
2021/12/05 12:06:18;;;;;;;46.50;22.43;;;1.30;99.90;;;;;;4156964;28;20317;-60
2021/12/05 12:08:19;;;;;;;47.00;22.40;;;1.30;99.90;;;;;;4155947;28;20286;-64
2021/12/05 12:10:20;;;;;;;46.93;22.33;;;1.30;99.90;;;;;;4157017;28;20263;-64
2021/12/05 12:12:22;;;;;;;44.73;20.97;;;1.30;99.90;;;;;;4155843;28;20318;-59
2021/12/05 12:14:23;;;;;;;44.80;21.37;;;1.40;99.90;;;;;;4157064;28;20332;-67
2021/12/05 12:16:24;;;;;;;44.27;22.57;;;1.40;99.90;;;;;;4154782;28;20279;-66
2021/12/05 12:18:31;;;;;;;45.60;23.03;;;1.40;99.90;;;;;;4156668;28;20275;-65
2021/12/05 12:20:36;;;;;;;43.03;21.90;;;1.40;99.90;;;;;;4156279;28;20669;-76
2021/12/05 12:22:39;;;;;;;40.73;21.63;;;1.40;99.90;;;;;;4156862;28;20324;-76
2021/12/05 12:24:40;;;;;;;53.90;22.63;;;1.40;99.90;;;;;;4155724;28;20316;-62
2021/12/05 12:26:43;;;;;;;44.87;21.60;;;1.50;99.90;;;;;;4155959;28;20343;-66
2021/12/05 12:28:44;;;;;;;42.97;21.30;;;1.50;99.90;;;;;;4156389;28;20275;-67
2021/12/05 12:30:52;;;;;;;43.33;21.53;;;1.50;99.90;;;;;;4156075;28;20275;-58
2021/12/05 12:33:10;;;;;;;41.17;20.97;;;1.60;99.90;;;;;;4156266;28;20669;-64
2021/12/05 12:35:20;;;;;;;43.53;20.73;;;1.70;99.90;;;;;;4155506;28;20340;-63
2021/12/05 12:37:21;;;;;;;46.60;22.20;;;1.70;99.90;;;;;;4156481;28;20845;-60
2021/12/05 12:39:33;;;;;;;39.90;21.17;;;1.80;99.90;;;;;;4156395;28;20063;-67
2021/12/05 12:41:35;;;;;;;46.40;21.03;;;1.80;99.90;;;;;;4156568;28;20757;-64
2021/12/05 12:43:48;;;;;;;47.57;22.10;;;1.90;99.90;;;;;;4155093;28;20274;-65
2021/12/05 12:45:49;;;;;;;37.13;20.00;;;1.90;99.90;;;;;;4147043;28;20302;-66
2021/12/05 12:47:58;;;;;;;46.27;22.93;;;2.00;99.90;;;;;;4155405;28;20328;-62
2021/12/05 12:50:29;;;;;;;39.67;20.70;;;2.00;99.90;;;;;;4156661;28;20352;-70
2021/12/05 12:52:31;;;;;;;44.00;23.30;;;2.00;99.90;;;;;;4156078;28;20275;-64
2021/12/05 12:54:45;;;;;;;46.17;21.00;;;2.00;99.90;;;;;;4156626;28;20283;-67
2021/12/05 12:57:13;;;;;;;45.43;23.10;;;2.10;99.90;;;;;;4156030;28;20271;-62
2021/12/05 12:59:17;;;;;;;40.63;20.73;;;2.20;99.90;;;;;;4156335;28;20612;-61
2021/12/05 13:02:26;;;;;;;38.50;19.97;;;2.20;99.90;;;;;;4155935;28;20263;-65
2021/12/05 13:11:23;;;;;;;44.73;21.80;;;2.30;99.90;;;;;;4156879;28;20321;-73
2021/12/05 13:13:28;;;;;;;44.70;22.57;;;2.30;99.90;;;;;;4153873;28;20282;-66
2021/12/05 13:15:53;;;;;;;37.83;20.07;;;2.30;99.90;;;;;;4156469;28;20974;-65
2021/12/05 13:18:02;;;;;;;42.23;22.03;;;2.30;99.90;;;;;;4155940;28;20754;-70
2021/12/05 13:20:04;;;;;;;43.67;22.57;;;2.30;99.90;;;;;;4156560;28;20283;-66
2021/12/05 13:22:07;;;;;;;43.70;21.97;;;2.30;99.90;;;;;;4155378;28;20793;-70
2021/12/05 13:24:25;;;;;;;40.03;21.67;;;2.30;99.90;;;;;;4156362;28;20713;-60
2021/12/05 13:26:35;;;;;;;42.83;21.73;;;2.40;99.90;;;;;;4154938;28;20341;-68
2021/12/05 13:28:44;;;;;;;41.50;20.88;;;2.40;99.90;;;;;;4158420;28;20352;-58
2021/12/05 13:30:45;;;;;;;42.53;22.07;;;2.40;99.90;;;;;;4158300;28;20076;-59
2021/12/05 13:32:46;;;;;;;43.57;21.43;;;2.40;99.90;;;;;;4159591;28;20267;-58
2021/12/05 13:34:58;;;;;;;42.30;21.30;;;2.40;99.90;;;;;;4158038;28;20275;-66
2021/12/05 13:37:05;;;;;;;41.23;21.67;;;2.40;99.90;;;;;;4159331;28;20271;-63
2021/12/05 13:39:28;;;;;;;43.60;22.40;;;2.40;99.90;;;;;;4158573;28;20399;-69
2021/12/05 13:41:30;;;;;;;41.47;20.87;;;2.40;99.90;;;;;;4159385;28;20290;-59
2021/12/05 13:43:31;;;;;;;42.23;21.87;;;2.40;99.90;;;;;;4158175;28;20349;-69
2021/12/05 13:45:41;;;;;;;39.77;20.63;;;2.40;99.90;;;;;;4158811;28;20262;-66
2021/12/05 13:47:51;;;;;;;38.97;21.53;;;2.40;99.90;;;;;;4157778;28;20419;-60
2021/12/05 13:49:52;;;;;;;42.22;20.83;;;2.40;99.90;;;;;;4159227;28;20321;-63
2021/12/05 13:51:53;;;;;;;40.00;21.67;;;2.30;99.90;;;;;;4139863;28;20034;-57
2021/12/05 13:53:59;;;;;;;43.20;20.77;;;2.30;99.90;;;;;;4143880;28;20322;-68
2021/12/05 13:56:10;;;;;;;43.10;22.40;;;2.40;99.90;;;;;;4141577;28;20321;-63
2021/12/05 13:58:28;;;;;;;46.00;23.17;;;2.30;99.90;;;;;;4142650;28;20349;-60
2021/12/05 14:00:41;;;;;;;44.90;22.57;;;2.30;99.90;;;;;;4140791;28;20280;-66
2021/12/05 14:02:54;;;;;;;43.67;21.80;;;2.30;99.90;;;;;;4156249;28;21914;-68
2021/12/05 14:04:56;;;;;;;47.87;24.43;;;2.30;99.90;;;;;;4157665;28;20615;-66
2021/12/05 14:07:04;;;;;;;48.13;23.23;;;2.30;99.90;;;;;;4158910;28;21153;-71
2021/12/05 14:09:16;;;;;;;47.73;23.90;;;2.30;99.90;;;;;;4158092;28;20258;-62
2021/12/05 14:11:17;;;;;;;43.57;22.47;;;2.30;99.90;;;;;;4159061;28;20275;-60
2021/12/05 14:13:21;;;;;;;42.70;20.60;;;2.30;99.90;;;;;;4157879;28;20263;-69
2021/12/05 14:15:23;;;;;;;45.03;22.60;;;2.20;99.90;;;;;;4159099;28;20274;-61
2021/12/05 14:17:32;;;;;;;47.67;22.50;;;2.30;99.90;;;;;;4157846;28;20294;-67
2021/12/05 14:19:35;;;;;;;38.73;20.63;;;2.30;99.90;;;;;;4157203;28;20739;-66
2021/12/05 14:21:47;;;;;;;41.10;21.03;;;2.30;99.90;;;;;;4156421;28;20709;-61
2021/12/05 14:23:49;;;;;;;40.30;21.03;;;2.30;99.90;;;;;;4157205;28;20401;-60
2021/12/05 14:25:50;;;;;;;43.53;21.73;;;2.20;99.90;;;;;;4157929;28;20367;-67
2021/12/05 14:27:56;;;;;;;47.30;22.07;;;2.20;99.90;;;;;;4165423;28;20697;-61
2021/12/05 14:29:58;;;;;;;44.47;22.63;;;2.20;99.90;;;;;;4157855;28;20267;-60
2021/12/05 14:32:02;;;;;;;41.53;20.43;;;2.20;99.90;;;;;;4157235;28;21136;-66
2021/12/05 14:34:04;;;;;;;48.80;22.60;;;2.10;99.90;;;;;;4157810;28;20305;-62
2021/12/05 14:36:07;;;;;;;42.70;22.00;;;2.10;99.90;;;;;;4157005;28;20333;-64
2021/12/05 14:38:08;;;;;;;42.37;21.13;;;2.10;99.90;;;;;;4158116;28;20275;-60
2021/12/05 14:40:20;;;;;;;44.27;21.90;;;2.00;99.90;;;;;;4157225;28;21136;-69
2021/12/05 14:42:24;;;;;;;46.33;20.83;;;1.90;99.90;;;;;;4158200;28;20338;-64
2021/12/05 14:44:25;;;;;;;38.33;20.33;;;1.90;99.90;;;;;;4156848;28;20266;-59
2021/12/05 14:46:27;;;;;;;39.17;21.00;;;1.90;99.90;;;;;;4157557;28;20417;-58
2021/12/05 14:48:31;;;;;;;41.43;21.87;;;1.90;99.90;;;;;;4156484;28;20632;-63
2021/12/05 14:50:34;;;;;;;48.57;23.87;;;1.80;99.90;;;;;;4157902;28;20652;-59
2021/12/05 14:52:39;;;;;;;52.73;25.43;;;1.80;99.90;;;;;;4156442;28;20759;-67
2021/12/05 14:54:41;;;;;;;51.13;24.20;;;1.80;99.90;;;;;;4157961;28;20323;-59
2021/12/05 14:56:42;;;;;;;48.97;23.70;;;1.70;99.90;;;;;;4157101;28;20346;-58
2021/12/05 14:58:44;;;;;;;52.13;24.00;;;1.70;99.90;;;;;;4158062;28;20359;-69
2021/12/05 15:00:50;;;;;;;51.77;24.60;;;1.60;99.90;;;;;;4157252;28;20324;-62
2021/12/05 15:03:08;;;;;;;50.83;23.53;;;1.60;99.90;;;;;;4157702;28;20331;-65
2021/12/05 15:05:15;;;;;;;42.07;21.00;;;1.60;99.90;;;;;;4156448;28;20290;-62
2021/12/05 15:07:19;;;;;;;48.57;23.73;;;1.60;99.90;;;;;;4157879;28;20274;-62
2021/12/05 15:09:33;;;;;;;52.33;25.80;;;1.60;99.90;;;;;;4156980;28;20283;-69
2021/12/05 15:11:35;;;;;;;44.23;22.93;;;1.50;99.90;;;;;;4157769;28;20291;-63
2021/12/05 15:13:36;;;;;;;49.53;25.70;;;1.60;99.90;;;;;;4156110;28;20324;-64
2021/12/05 15:15:38;;;;;;;52.37;25.17;;;1.50;99.90;;;;;;4157132;28;20985;-62
2021/12/05 15:17:42;;;;;;;63.07;32.30;;;1.50;99.90;;;;;;4157141;28;20267;-65
2021/12/05 15:19:46;;;;;;;70.80;32.70;;;1.50;99.90;;;;;;4156517;28;20282;-60
2021/12/05 15:21:48;;;;;;;80.53;38.53;;;1.50;99.90;;;;;;4157096;28;20328;-63
2021/12/05 15:23:49;;;;;;;83.80;36.70;;;1.50;99.90;;;;;;4156689;28;20301;-68
2021/12/05 15:25:51;;;;;;;69.67;35.07;;;1.50;99.90;;;;;;4157430;28;20790;-65
2021/12/05 15:27:52;;;;;;;66.17;33.43;;;1.50;99.90;;;;;;4155833;28;20329;-61
2021/12/05 15:29:59;;;;;;;57.87;29.37;;;1.50;99.90;;;;;;4156094;28;20312;-62
2021/12/05 15:32:00;;;;;;;60.63;29.13;;;1.50;99.90;;;;;;4156183;28;20254;-70
2021/12/05 15:34:15;;;;;;;60.37;28.70;;;1.50;99.90;;;;;;4157327;28;20384;-58
2021/12/05 15:36:17;;;;;;;64.23;29.17;;;1.40;99.90;;;;;;4156401;28;20792;-70
2021/12/05 15:38:25;;;;;;;63.20;28.60;;;1.40;99.90;;;;;;4157262;28;20270;-61
2021/12/05 15:40:28;;;;;;;55.07;26.67;;;1.40;99.90;;;;;;4140591;28;20264;-67
2021/12/05 15:42:37;;;;;;;58.63;26.43;;;1.40;99.90;;;;;;4141830;28;20272;-65
2021/12/05 15:44:42;;;;;;;56.00;27.53;;;1.40;99.90;;;;;;4150231;28;20321;-65
2021/12/05 15:46:43;;;;;;;55.90;29.57;;;1.40;99.90;;;;;;4157186;28;20258;-60
2021/12/05 15:48:46;;;;;;;63.03;30.00;;;1.40;99.90;;;;;;4154997;28;20329;-67
2021/12/05 15:50:50;;;;;;;63.43;30.10;;;1.40;99.90;;;;;;4156869;28;20270;-60
2021/12/05 15:52:56;;;;;;;59.63;28.03;;;1.40;99.90;;;;;;4156190;28;20356;-65
2021/12/05 15:54:58;;;;;;;71.17;30.77;;;1.40;99.90;;;;;;4156522;28;20340;-60
2021/12/05 15:57:14;;;;;;;66.67;32.80;;;1.40;99.90;;;;;;4154884;28;20308;-65
2021/12/05 15:59:18;;;;;;;53.30;25.60;;;1.40;99.90;;;;;;4157067;28;20282;-66
2021/12/05 16:01:23;;;;;;;58.03;27.37;;;1.40;99.90;;;;;;4155486;28;20259;-62
2021/12/05 16:03:38;;;;;;;52.40;26.47;;;1.40;99.90;;;;;;4154884;28;20267;-60
2021/12/05 16:05:42;;;;;;;52.33;26.50;;;1.40;99.90;;;;;;4155912;28;20278;-67
2021/12/05 16:07:43;;;;;;;54.27;27.57;;;1.40;99.90;;;;;;4156656;28;20290;-63
2021/12/05 16:09:46;;;;;;;62.00;27.20;;;1.40;99.90;;;;;;4155859;28;20766;-70
2021/12/05 16:11:50;;;;;;;54.37;28.53;;;1.40;99.90;;;;;;4156550;28;20274;-66
2021/12/05 16:13:53;;;;;;;60.63;28.53;;;1.40;99.90;;;;;;4155848;28;20304;-61
2021/12/05 16:16:06;;;;;;;57.03;29.13;;;1.40;99.90;;;;;;4156340;28;20745;-63